13:42
Airports
History
Links
Donate
Help keep this website running!
PayPal
Bitcoin
This page is community maintained. The information is intended for PC simulator navigation or reference.
Always use approved charts for navigation.
LIEA
ALGHERO
ALGHERO (LIEA)
Alghero, Sardegna, Italy (7041)
(C)
Lat/Lng:40° 37' 55.68" N / 8° 17' 26.79" E
40.632132 / 8.290774
Elevation:87'ft / 27mMSL
ID / ICAO:LIEA
Runways:1
Longest:02-20
Asphalt 2,993m / 9,821ft
Controlled:Yes
METAR13:20 GMT 2017-11-20
Altimeter: 30.12
Visibility: 6.2 statute miles
Wind: 8 knots (from 260°)
Temp: 15°c / 59°f
Humidity: 67.3%

METAR: LIEA 201320Z 26008KT 230V290 9999 BKN030 15/09 Q1020

(Powered by phpweather)
Airport Radio Frequencies
ATIS: 125.02
Tower: 118.85
Approach: 128.55
Nearby VORs <50NM
Nearby NDBs
Runway 02 / 20
Dimensions:2993.4 x 45.1m 9821' x 148'ft
Surface:Asphalt
Edge Lights:Medium intensity
Runway 02 [A]Runway 20 [B]
Heading:024°TH 204°TH
Lat:
Lng:
40° 37' 11.45"N
8° 17' 0.21"E
40° 38' 39.9"N
8° 17' 53.36"E
ALS:ALSF-I
TDZ:Yes, lighted
User Notes and Comments
40° 37' 55.68" N / 8° 17' 26.79" E
Distance To
Airport ID:
Nearby Airports
(U) Oristano Fenosu 54.3 NM
LIER SSE 160°
(C) OLBIA COSTA SMERALDA 66.8 NM
LIEO ( WX ) ENE 73°
(C) Cavallo 71.8 NM
2051 NE 44°
(C) Figari Sud Corse 73.3 NM
LFKF ( WX ) NE 34°
(C) Propriano 77.6 NM
LFKO NNE 23°
(C) TORTOLI 88.4 NM
LIET ESE 123°
(C) Napoleon Bonaparte 92.9 NM
LFKJ ( WX ) NNE 16°
VFR Chart
Flight Planning at SkyVector.com